createdAt,value
2018-09-19T00:01:39.572Z,20.93
2018-09-19T00:04:08.088Z,16.63
2018-09-19T00:06:36.568Z,19.27
2018-09-19T00:09:07.392Z,20.60
2018-09-19T00:11:36.813Z,24.83
2018-09-19T00:14:05.439Z,20.90
2018-09-19T00:16:33.931Z,25.40
2018-09-19T00:19:02.511Z,23.93
2018-09-19T00:21:31.063Z,17.53
2018-09-19T00:24:00.607Z,19.93
2018-09-19T00:26:29.027Z,20.67
2018-09-19T00:28:57.512Z,22.77
2018-09-19T00:31:25.908Z,17.27
2018-09-19T00:33:54.883Z,19.67
2018-09-19T00:36:23.973Z,17.60
2018-09-19T00:38:52.472Z,20.27
2018-09-19T00:41:21.001Z,16.70
2018-09-19T00:43:49.494Z,15.73
2018-09-19T00:46:17.987Z,22.27
2018-09-19T00:48:46.696Z,18.17
2018-09-19T00:51:15.234Z,20.97
2018-09-19T00:53:44.108Z,18.00
2018-09-19T00:56:12.741Z,22.30
2018-09-19T00:58:41.580Z,19.47
2018-09-19T01:01:10.452Z,20.70
2018-09-19T01:03:38.876Z,20.90
2018-09-19T01:06:07.399Z,21.07
2018-09-19T01:08:36.317Z,18.20
2018-09-19T01:11:04.834Z,19.87
2018-09-19T01:13:34.560Z,22.97
2018-09-19T01:16:03.182Z,22.33
2018-09-19T01:18:31.987Z,17.03
2018-09-19T01:21:00.801Z,22.47
2018-09-19T01:23:29.291Z,20.10
2018-09-19T01:25:57.769Z,19.63
2018-09-19T01:28:27.172Z,18.33
2018-09-19T01:30:55.976Z,19.43
2018-09-19T01:33:25.131Z,16.77
2018-09-19T01:35:53.808Z,20.40
2018-09-19T01:38:22.317Z,18.40
2018-09-19T01:40:50.980Z,22.10
2018-09-19T01:43:19.614Z,18.47
2018-09-19T01:45:48.657Z,19.53
2018-09-19T01:48:17.140Z,15.90
2018-09-19T01:50:45.644Z,19.67
2018-09-19T01:53:14.157Z,16.27
2018-09-19T01:55:42.642Z,20.53
2018-09-19T01:58:11.282Z,13.10
2018-09-19T02:00:39.803Z,16.50
2018-09-19T02:03:08.338Z,20.10
2018-09-19T02:05:37.153Z,18.10
2018-09-19T02:08:05.936Z,18.00
2018-09-19T02:10:34.343Z,27.10
2018-09-19T02:13:03.729Z,22.00
2018-09-19T02:15:32.348Z,21.57
2018-09-19T02:18:00.877Z,23.77
2018-09-19T02:20:30.008Z,18.57
2018-09-19T02:22:58.503Z,21.03
2018-09-19T02:25:26.945Z,21.80
2018-09-19T02:27:55.498Z,18.63
2018-09-19T02:30:23.931Z,19.87
2018-09-19T02:32:52.618Z,21.17
2018-09-19T02:35:21.125Z,19.27
2018-09-19T02:37:50.530Z,15.93
2018-09-19T02:40:19.213Z,22.70
2018-09-19T02:42:47.726Z,19.93
2018-09-19T02:45:16.171Z,18.77
2018-09-19T02:47:45.241Z,23.37
2018-09-19T02:50:14.206Z,24.10
2018-09-19T02:52:42.661Z,21.53
2018-09-19T02:55:11.141Z,29.63
2018-09-19T02:57:39.621Z,21.80
2018-09-19T03:00:08.071Z,28.97
2018-09-19T03:02:36.498Z,19.93
2018-09-19T03:05:04.930Z,22.27
2018-09-19T03:07:33.292Z,23.60
2018-09-19T03:10:01.703Z,21.03
2018-09-19T03:12:30.266Z,23.77
2018-09-19T03:14:58.656Z,26.70
2018-09-19T03:17:27.143Z,20.90
2018-09-19T03:19:55.682Z,31.40
2018-09-19T03:22:24.180Z,24.90
2018-09-19T03:24:52.704Z,25.27
2018-09-19T03:27:21.351Z,24.73
2018-09-19T03:29:49.944Z,24.10
2018-09-19T03:32:18.461Z,19.80
2018-09-19T03:34:47.340Z,26.77
2018-09-19T03:37:15.901Z,24.73
2018-09-19T03:39:44.472Z,27.27
2018-09-19T03:42:12.943Z,29.33
2018-09-19T03:44:41.484Z,26.87
2018-09-19T03:47:10.102Z,20.33
2018-09-19T03:49:38.555Z,32.50
2018-09-19T03:52:07.063Z,23.17
2018-09-19T03:54:35.567Z,28.10
2018-09-19T03:57:04.040Z,26.80
2018-09-19T03:59:32.512Z,25.17
2018-09-19T04:02:00.904Z,27.60
2018-09-19T04:04:29.990Z,28.97
2018-09-19T04:06:58.364Z,28.13
2018-09-19T04:09:26.847Z,27.43
2018-09-19T04:11:55.404Z,32.20
2018-09-19T04:14:23.947Z,23.40
2018-09-19T04:16:52.518Z,29.47
2018-09-19T04:19:20.985Z,28.73
2018-09-19T04:21:53.398Z,22.07
2018-09-19T04:24:21.874Z,26.03
2018-09-19T04:26:50.546Z,28.20
2018-09-19T04:29:19.744Z,35.27
2018-09-19T04:31:48.796Z,31.90
2018-09-19T04:34:17.688Z,30.63
2018-09-19T04:36:46.400Z,32.53
2018-09-19T04:39:15.062Z,31.40
2018-09-19T04:41:43.761Z,31.23
2018-09-19T04:44:12.344Z,37.70
2018-09-19T04:46:40.929Z,32.97
2018-09-19T04:49:11.041Z,42.63
2018-09-19T04:51:40.613Z,32.23
2018-09-19T04:54:09.420Z,25.27
2018-09-19T04:56:38.519Z,31.57
2018-09-19T04:59:07.244Z,26.63
2018-09-19T05:01:35.788Z,29.07
2018-09-19T05:04:05.441Z,37.30
2018-09-19T05:06:34.315Z,27.40
2018-09-19T05:09:03.062Z,38.53
2018-09-19T05:11:31.803Z,34.13
2018-09-19T05:14:00.370Z,31.13
2018-09-19T05:16:28.829Z,30.63
2018-09-19T05:18:57.376Z,28.33
2018-09-19T05:21:26.834Z,25.57
2018-09-19T05:23:56.012Z,26.47
2018-09-19T05:26:24.629Z,30.23
2018-09-19T05:28:53.076Z,30.80
2018-09-19T05:31:21.751Z,29.23
2018-09-19T05:33:50.253Z,29.93
2018-09-19T05:36:18.665Z,31.73
2018-09-19T05:38:47.354Z,30.57
2018-09-19T05:41:16.266Z,34.27
2018-09-19T05:43:45.067Z,31.63
2018-09-19T05:46:13.579Z,33.73
2018-09-19T05:48:42.978Z,31.47
2018-09-19T05:51:11.809Z,32.27
2018-09-19T05:53:40.443Z,33.63
2018-09-19T05:56:09.066Z,29.97
2018-09-19T05:58:37.691Z,36.17
2018-09-19T06:01:06.353Z,33.93
2018-09-19T06:03:34.960Z,32.23
2018-09-19T06:06:04.302Z,28.87
2018-09-19T06:08:32.947Z,32.10
2018-09-19T06:11:01.652Z,32.07
2018-09-19T06:13:30.151Z,35.63
2018-09-19T06:15:58.858Z,40.03
2018-09-19T06:18:27.417Z,32.10
2018-09-19T06:20:55.987Z,31.60
2018-09-19T06:23:24.474Z,44.83
2018-09-19T06:25:53.084Z,26.90
2018-09-19T06:28:21.552Z,26.47
2018-09-19T06:30:50.012Z,25.67
2018-09-19T06:33:19.323Z,27.70
2018-09-19T06:35:48.277Z,27.03
2018-09-19T06:38:17.414Z,27.60
2018-09-19T06:40:45.930Z,27.10
2018-09-19T06:43:15.203Z,24.07
2018-09-19T06:45:43.861Z,27.27
2018-09-19T06:48:13.406Z,24.90
2018-09-19T06:50:41.964Z,28.13
2018-09-19T06:53:10.516Z,25.30
2018-09-19T06:55:39.018Z,29.33
2018-09-19T06:58:07.537Z,30.13
2018-09-19T07:00:36.094Z,26.40
2018-09-19T07:03:04.775Z,26.70
2018-09-19T07:05:33.385Z,27.97
2018-09-19T07:08:01.944Z,28.00
2018-09-19T07:10:31.140Z,23.47
2018-09-19T07:12:59.669Z,27.90
2018-09-19T07:15:28.279Z,21.70
2018-09-19T07:17:56.916Z,25.50
2018-09-19T07:20:25.544Z,28.63
2018-09-19T07:22:54.159Z,25.20
2018-09-19T07:25:22.899Z,18.33
2018-09-19T07:27:52.227Z,21.93
2018-09-19T07:30:21.557Z,22.53
2018-09-19T07:32:50.108Z,24.60
2018-09-19T07:35:18.738Z,17.17
2018-09-19T07:37:47.294Z,18.10
2018-09-19T07:40:16.010Z,25.50
2018-09-19T07:42:44.622Z,21.20
2018-09-19T07:45:13.219Z,22.87
2018-09-19T07:47:41.696Z,21.27
2018-09-19T07:50:10.310Z,27.57
2018-09-19T07:52:39.111Z,22.13
2018-09-19T07:55:07.864Z,26.43
2018-09-19T07:57:36.929Z,17.17
2018-09-19T08:00:05.681Z,19.70
2018-09-19T08:02:34.212Z,15.77
2018-09-19T08:05:02.733Z,12.93
2018-09-19T08:07:31.195Z,20.87
2018-09-19T08:09:59.675Z,19.17
2018-09-19T08:12:28.337Z,11.90
2018-09-19T08:14:57.064Z,9.77
2018-09-19T08:17:25.613Z,12.65
2018-09-19T08:19:54.422Z,6.93
2018-09-19T08:22:22.899Z,9.10
2018-09-19T08:24:51.448Z,5.20
2018-09-19T08:27:20.019Z,8.38
2018-09-19T08:29:48.991Z,13.40
2018-09-19T08:32:17.522Z,8.73
2018-09-19T08:34:46.142Z,10.40
2018-09-19T08:37:14.696Z,10.05
2018-09-19T08:39:43.240Z,10.25
2018-09-19T08:42:11.755Z,9.53
2018-09-19T08:44:40.390Z,10.70
2018-09-19T08:47:08.940Z,12.93
2018-09-19T08:49:37.481Z,13.93
2018-09-19T08:52:05.997Z,17.10
2018-09-19T08:54:34.650Z,11.38
2018-09-19T08:57:03.841Z,10.68
2018-09-19T08:59:32.439Z,9.60
2018-09-19T09:02:01.414Z,15.28
2018-09-19T09:04:30.190Z,16.17
2018-09-19T09:06:58.691Z,11.73
2018-09-19T09:09:27.150Z,12.30
2018-09-19T09:11:55.611Z,12.68
2018-09-19T09:14:25.135Z,14.10
2018-09-19T09:16:53.644Z,15.05
2018-09-19T09:19:22.094Z,13.25
2018-09-19T09:21:50.812Z,12.33
2018-09-19T09:24:19.267Z,15.58
2018-09-19T09:26:48.602Z,17.17
2018-09-19T09:29:17.003Z,10.15
2018-09-19T09:31:45.480Z,14.00
2018-09-19T09:34:14.132Z,9.00
2018-09-19T09:36:42.775Z,10.18
2018-09-19T09:39:11.210Z,13.62
2018-09-19T09:41:39.693Z,13.03
2018-09-19T09:44:08.450Z,12.23
2018-09-19T09:46:37.022Z,11.03
2018-09-19T09:49:05.827Z,16.02
2018-09-19T09:51:34.305Z,14.47
2018-09-19T09:54:02.868Z,9.93
2018-09-19T09:56:31.412Z,12.75
2018-09-19T09:58:59.980Z,12.98
2018-09-19T10:01:28.691Z,9.70
2018-09-19T10:03:57.129Z,14.35
2018-09-19T10:06:25.804Z,17.62
2018-09-19T10:08:54.525Z,14.05
2018-09-19T10:11:23.017Z,19.40
2018-09-19T10:13:51.489Z,13.75
2018-09-19T10:16:20.327Z,13.45
2018-09-19T10:18:48.809Z,12.20
2018-09-19T10:21:17.268Z,9.43
2018-09-19T10:23:45.858Z,6.55
2018-09-19T10:26:14.374Z,14.68
2018-09-19T10:28:42.904Z,12.05
2018-09-19T10:31:11.442Z,13.75
2018-09-19T10:33:40.071Z,13.55
2018-09-19T10:36:08.622Z,18.05
2018-09-19T10:38:37.172Z,8.43
2018-09-19T10:41:05.695Z,8.73
2018-09-19T10:43:34.157Z,11.90
2018-09-19T10:46:02.907Z,12.63
2018-09-19T10:48:31.424Z,8.60
2018-09-19T10:50:59.937Z,10.43
2018-09-19T10:53:28.371Z,8.40
2018-09-19T10:55:56.949Z,9.65
2018-09-19T10:58:25.480Z,11.65
2018-09-19T11:00:53.930Z,9.60
2018-09-19T11:03:22.399Z,12.68
2018-09-19T11:05:50.909Z,13.58
2018-09-19T11:08:20.519Z,19.75
2018-09-19T11:10:49.343Z,13.60
2018-09-19T11:13:18.186Z,11.60
2018-09-19T11:15:46.863Z,10.75
2018-09-19T11:18:15.501Z,9.03
2018-09-19T11:20:44.106Z,12.00
2018-09-19T11:23:12.951Z,18.20
2018-09-19T11:25:41.780Z,15.23
2018-09-19T11:28:10.909Z,11.20
2018-09-19T11:30:39.676Z,13.58
2018-09-19T11:33:08.191Z,15.20
2018-09-19T11:35:37.050Z,19.05
2018-09-19T11:38:05.831Z,9.15
2018-09-19T11:40:34.479Z,8.68
2018-09-19T11:43:03.163Z,14.18
2018-09-19T11:45:31.772Z,11.93
2018-09-19T11:48:00.490Z,8.23
2018-09-19T11:50:28.990Z,8.15
2018-09-19T11:52:57.868Z,9.83
2018-09-19T11:55:26.578Z,6.58
2018-09-19T11:57:55.878Z,11.55
2018-09-19T12:00:24.549Z,7.30
2018-09-19T12:02:53.336Z,10.00
2018-09-19T12:05:22.223Z,9.15
2018-09-19T12:07:50.949Z,7.70
2018-09-19T12:10:19.689Z,8.33
2018-09-19T12:12:48.380Z,6.03
2018-09-19T12:15:17.242Z,7.97
2018-09-19T12:17:45.933Z,8.75
2018-09-19T12:20:14.712Z,5.28
2018-09-19T12:22:44.086Z,9.63
2018-09-19T12:25:12.846Z,6.47
2018-09-19T12:27:41.942Z,7.37
2018-09-19T12:30:10.916Z,8.73
2018-09-19T12:32:39.578Z,6.47
2018-09-19T12:35:08.303Z,7.47
2018-09-19T12:37:37.148Z,8.25
2018-09-19T12:40:06.547Z,9.28
2018-09-19T12:42:35.124Z,9.85
2018-09-19T12:45:04.540Z,6.17
2018-09-19T12:47:33.210Z,8.03
2018-09-19T12:50:01.837Z,9.65
2018-09-19T12:52:30.606Z,14.20
2018-09-19T12:54:59.213Z,7.97
2018-09-19T12:57:28.506Z,12.55
2018-09-19T12:59:57.818Z,8.50
2018-09-19T13:02:26.479Z,8.33
2018-09-19T13:04:55.140Z,5.17
2018-09-19T13:07:23.923Z,6.33
2018-09-19T13:09:52.733Z,5.35
2018-09-19T13:12:21.452Z,5.50
2018-09-19T13:14:51.152Z,6.12
2018-09-19T13:17:21.777Z,7.03
2018-09-19T13:19:50.640Z,4.60
2018-09-19T13:22:19.263Z,11.75
2018-09-19T13:24:48.125Z,7.85
2018-09-19T13:27:17.642Z,8.53
2018-09-19T13:29:46.299Z,6.30
2018-09-19T13:32:15.084Z,12.00
2018-09-19T13:34:44.571Z,4.85
2018-09-19T13:37:13.359Z,8.45
2018-09-19T13:39:42.154Z,7.03
2018-09-19T13:42:10.841Z,8.40
2018-09-19T13:44:39.626Z,12.80
2018-09-19T13:47:08.414Z,9.68
2018-09-19T13:49:45.203Z,8.78
2018-09-19T13:52:13.817Z,5.37
2018-09-19T13:54:42.498Z,6.83
2018-09-19T13:57:11.184Z,4.97
2018-09-19T13:59:39.825Z,5.47
2018-09-19T14:02:08.608Z,13.08
2018-09-19T14:04:37.221Z,5.83
2018-09-19T14:07:05.921Z,9.05
2018-09-19T14:09:34.696Z,8.95
2018-09-19T14:12:04.039Z,8.30
2018-09-19T14:14:32.912Z,5.05
2018-09-19T14:17:01.601Z,5.47
2018-09-19T14:19:30.139Z,6.35
2018-09-19T14:21:58.673Z,4.45
2018-09-19T14:24:27.238Z,7.67
2018-09-19T14:26:56.502Z,8.88
2018-09-19T14:29:25.712Z,4.20
2018-09-19T14:31:54.236Z,8.08
2018-09-19T14:34:22.847Z,10.60
2018-09-19T14:36:51.412Z,5.37
2018-09-19T14:39:20.017Z,5.28
2018-09-19T14:41:48.674Z,7.12
2018-09-19T14:44:17.501Z,7.65
2018-09-19T14:46:46.225Z,6.03
2018-09-19T14:49:14.840Z,10.58
2018-09-19T14:51:43.538Z,5.33
2018-09-19T14:54:13.520Z,10.00
2018-09-19T14:56:42.033Z,10.30
2018-09-19T14:59:10.728Z,6.50
2018-09-19T15:01:39.999Z,9.75
2018-09-19T15:04:08.693Z,6.67
2018-09-19T15:06:37.341Z,7.85
2018-09-19T15:09:08.954Z,6.65
2018-09-19T15:11:37.561Z,7.05
2018-09-19T15:14:06.301Z,6.05
2018-09-19T15:16:35.516Z,5.83
2018-09-19T15:19:04.134Z,5.28
2018-09-19T15:21:32.916Z,4.45
2018-09-19T15:24:02.156Z,5.80
2018-09-19T15:26:30.676Z,6.35
2018-09-19T15:28:59.350Z,8.78
2018-09-19T15:31:28.901Z,6.92
2018-09-19T15:33:57.579Z,9.38
2018-09-19T15:36:26.402Z,8.40
2018-09-19T15:38:54.898Z,7.60
2018-09-19T15:41:23.423Z,9.33
2018-09-19T15:43:52.902Z,15.40
2018-09-19T15:46:22.608Z,6.55
2018-09-19T15:48:52.871Z,6.10
2018-09-19T15:51:22.521Z,6.60
2018-09-19T15:53:53.585Z,4.65
2018-09-19T15:56:23.219Z,7.72
2018-09-19T15:58:52.799Z,11.25
2018-09-19T16:01:22.615Z,9.73
2018-09-19T16:03:52.928Z,5.97
2018-09-19T16:06:22.428Z,10.43
2018-09-19T16:08:51.110Z,10.53
2018-09-19T16:11:20.010Z,7.75
2018-09-19T16:13:48.811Z,6.05
2018-09-19T16:16:18.062Z,7.90
2018-09-19T16:18:47.639Z,7.62
2018-09-19T16:21:18.557Z,8.05
2018-09-19T16:23:49.350Z,7.83
2018-09-19T16:26:20.896Z,7.45
2018-09-19T16:28:49.815Z,11.25
2018-09-19T16:31:18.685Z,10.08
2018-09-19T16:33:49.858Z,5.22
2018-09-19T16:36:19.597Z,7.35
2018-09-19T16:38:53.532Z,5.33
2018-09-19T16:41:22.885Z,8.03
2018-09-19T16:43:52.201Z,6.67
2018-09-19T16:46:23.356Z,12.30
2018-09-19T16:48:52.243Z,9.08
2018-09-19T16:51:30.172Z,7.92
2018-09-19T16:54:02.286Z,6.08
2018-09-19T16:56:33.900Z,14.73
2018-09-19T16:59:04.961Z,8.15
2018-09-19T17:01:34.055Z,7.87
2018-09-19T17:04:05.648Z,8.90
2018-09-19T17:06:40.577Z,7.25
2018-09-19T17:09:13.403Z,5.60
2018-09-19T17:11:43.881Z,5.87
2018-09-19T17:14:13.135Z,10.32
2018-09-19T17:16:42.444Z,15.00
2018-09-19T17:19:12.173Z,11.65
2018-09-19T17:21:42.873Z,9.28
2018-09-19T17:24:12.299Z,10.30
2018-09-19T17:26:41.476Z,6.70
2018-09-19T17:29:10.570Z,4.72
2018-09-19T17:31:39.492Z,9.70
2018-09-19T17:34:08.378Z,9.65
2018-09-19T17:36:37.203Z,8.50
2018-09-19T17:39:09.449Z,6.67
2018-09-19T17:41:38.749Z,8.30
2018-09-19T17:44:07.710Z,8.38
2018-09-19T17:46:38.124Z,8.18
2018-09-19T17:49:08.351Z,7.35
2018-09-19T17:51:37.578Z,10.25
2018-09-19T17:54:07.456Z,13.40
2018-09-19T17:56:37.157Z,8.88
2018-09-19T17:59:06.873Z,9.18
2018-09-19T18:01:36.600Z,9.90
2018-09-19T18:04:06.484Z,14.28
2018-09-19T18:06:35.393Z,13.10
2018-09-19T18:09:05.211Z,13.20
2018-09-19T18:11:34.179Z,14.28
2018-09-19T18:14:02.881Z,9.38
2018-09-19T18:16:32.710Z,8.80
2018-09-19T18:19:01.330Z,7.97
2018-09-19T18:21:30.052Z,11.88
2018-09-19T18:23:59.403Z,13.48
2018-09-19T18:26:28.542Z,14.03
2018-09-19T18:28:57.391Z,9.70
2018-09-19T18:31:27.284Z,16.45
2018-09-19T18:33:56.300Z,10.50
2018-09-19T18:36:25.152Z,9.78
2018-09-19T18:38:54.858Z,13.37
2018-09-19T18:41:23.572Z,15.33
2018-09-19T18:43:53.043Z,10.80
2018-09-19T18:46:23.466Z,14.70
2018-09-19T18:48:52.115Z,10.37
2018-09-19T18:51:20.812Z,11.87
2018-09-19T18:53:49.437Z,7.83
2018-09-19T18:56:19.220Z,11.00
2018-09-19T18:58:48.052Z,10.43
2018-09-19T19:01:16.469Z,11.07
2018-09-19T19:03:45.273Z,12.07
2018-09-19T19:06:14.916Z,13.27
2018-09-19T19:08:44.907Z,15.97
2018-09-19T19:11:15.066Z,9.93
2018-09-19T19:13:46.919Z,8.43
2018-09-19T19:16:16.624Z,11.07
2018-09-19T19:18:48.418Z,12.63
2018-09-19T19:21:17.160Z,8.47
2018-09-19T19:23:47.093Z,18.37
2018-09-19T19:26:16.241Z,9.80
2018-09-19T19:28:44.953Z,10.70
2018-09-19T19:31:13.810Z,10.53
2018-09-19T19:33:43.840Z,9.17
2018-09-19T19:36:13.042Z,7.30
2018-09-19T19:38:41.730Z,14.83
2018-09-19T19:41:10.413Z,5.27
2018-09-19T19:43:39.128Z,8.23
2018-09-19T19:46:07.818Z,9.33
2018-09-19T19:48:36.567Z,8.47
2018-09-19T19:51:05.220Z,10.50
2018-09-19T19:53:34.017Z,13.00
2018-09-19T19:56:02.811Z,13.87
2018-09-19T19:58:31.708Z,9.37
2018-09-19T20:01:00.486Z,13.43
2018-09-19T20:03:29.193Z,12.67
2018-09-19T20:05:58.063Z,8.10
2018-09-19T20:08:26.741Z,10.17
2018-09-19T20:10:55.451Z,6.17
2018-09-19T20:13:24.115Z,10.03
2018-09-19T20:15:53.059Z,9.87
2018-09-19T20:18:21.487Z,9.70
2018-09-19T20:20:49.908Z,8.90
2018-09-19T20:23:18.540Z,9.00
2018-09-19T20:25:47.278Z,10.17
2018-09-19T20:28:15.965Z,16.33
2018-09-19T20:30:44.603Z,10.47
2018-09-19T20:33:13.132Z,7.57
2018-09-19T20:35:44.179Z,9.03
2018-09-19T20:38:17.533Z,6.93
2018-09-19T20:40:52.704Z,9.93
2018-09-19T20:43:26.721Z,11.27
2018-09-19T20:46:02.344Z,8.77
2018-09-19T20:48:37.064Z,12.97
2018-09-19T20:51:09.400Z,6.10
2018-09-19T20:53:41.451Z,6.80
2018-09-19T20:56:14.277Z,8.30
2018-09-19T20:58:42.770Z,8.57
2018-09-19T21:01:11.415Z,8.27
2018-09-19T21:03:39.907Z,7.17
2018-09-19T21:06:08.376Z,10.83
2018-09-19T21:08:37.354Z,7.93
2018-09-19T21:11:06.046Z,10.10
2018-09-19T21:13:34.626Z,5.67
2018-09-19T21:16:03.099Z,7.37
2018-09-19T21:18:31.615Z,9.37
2018-09-19T21:21:00.108Z,17.30
2018-09-19T21:23:28.718Z,10.23
2018-09-19T21:25:57.215Z,8.73
2018-09-19T21:28:25.734Z,11.13
2018-09-19T21:30:54.410Z,13.10
2018-09-19T21:33:22.882Z,11.83
2018-09-19T21:35:51.581Z,13.37
2018-09-19T21:38:20.024Z,10.40
2018-09-19T21:40:48.515Z,7.53
2018-09-19T21:43:17.311Z,12.00
2018-09-19T21:45:46.808Z,14.57
2018-09-19T21:48:15.309Z,16.17
2018-09-19T21:50:43.777Z,15.70
2018-09-19T21:53:12.272Z,14.47
2018-09-19T21:55:40.724Z,14.03
2018-09-19T21:58:09.195Z,7.67
2018-09-19T22:00:37.731Z,8.30
2018-09-19T22:03:06.404Z,8.83
2018-09-19T22:05:34.857Z,8.80
2018-09-19T22:08:03.377Z,8.17
2018-09-19T22:10:31.932Z,9.93
2018-09-19T22:13:00.493Z,9.10
2018-09-19T22:15:29.046Z,10.73
2018-09-19T22:17:57.475Z,12.47
2018-09-19T22:20:25.974Z,9.53
2018-09-19T22:22:54.565Z,8.47
2018-09-19T22:25:23.096Z,15.03
2018-09-19T22:27:51.588Z,6.87
2018-09-19T22:30:20.375Z,9.30
2018-09-19T22:32:48.765Z,9.30
2018-09-19T22:35:17.152Z,12.00
2018-09-19T22:37:45.580Z,10.73
2018-09-19T22:40:14.038Z,11.67
2018-09-19T22:42:42.747Z,7.63
2018-09-19T22:45:11.238Z,7.47
2018-09-19T22:47:40.859Z,8.03
2018-09-19T22:50:09.367Z,16.90
2018-09-19T22:52:38.217Z,9.37
2018-09-19T22:55:06.839Z,8.37
2018-09-19T22:57:35.328Z,10.40
2018-09-19T23:00:03.772Z,7.83
2018-09-19T23:02:32.803Z,9.83
2018-09-19T23:05:01.281Z,12.13
2018-09-19T23:07:29.772Z,11.83
2018-09-19T23:09:58.536Z,10.53
2018-09-19T23:12:27.409Z,11.20
2018-09-19T23:14:55.906Z,9.80
2018-09-19T23:17:24.393Z,9.20
2018-09-19T23:19:52.870Z,6.53
2018-09-19T23:22:21.414Z,8.33
2018-09-19T23:24:49.819Z,9.13
2018-09-19T23:27:19.012Z,11.90
2018-09-19T23:29:47.586Z,12.30
2018-09-19T23:32:16.065Z,15.67
2018-09-19T23:34:44.526Z,9.57
2018-09-19T23:37:13.003Z,9.53
2018-09-19T23:39:41.511Z,11.73
2018-09-19T23:42:10.884Z,8.67
2018-09-19T23:44:39.388Z,12.70
2018-09-19T23:47:08.460Z,7.40
2018-09-19T23:49:36.998Z,8.30
2018-09-19T23:52:05.591Z,11.43
2018-09-19T23:54:35.150Z,9.17
2018-09-19T23:57:04.088Z,16.07
2018-09-19T23:59:32.605Z,9.87
